Kezdőlap
METAR-TAF:

METAR-TAF

Repülőterek :

Lincoln Airport

Lincoln, Nebraska, Amerikai Egyesült Államok

földrajzi szélesség: 40-49-52N, földrajzi hosszúság: 096-45-52W, magasság: 370 m

Jelenlegi meteorológiai megfigyelések

A jelentés 40 perccel ezelõtt készült, 20:54 UTC
Hőmérséklet 23°C
Páratartalom 29%
Légköri nyomás 1024 hPa
Látótávolság: 16.1 km
Derült ég

METAR: KLNK 222054Z 10SM CLR 23/04 A3025 RMK AO2 SLP240 T02330039 56030

Idő: 16:34 (21:34 UTC)

Előrejelzés

A jelentés 3 órával és 54 perccel ezelõtt készült, 17:40 UTC
Az előrejelzés 22-én 18 óra UTC és 23-én 18 óra UTC között érvényes
Dél-délkeleti szél 5 kt
Látótávolság: 10 km
Derült ég
23-én 1600 órától UTC szerint
Déli szél 9 kt
Látótávolság: 10 km
Derült ég

TAF: KLNK 221740Z 2218/2318 15005KT P6SM SKC FM231600 18009KT P6SM SKC

Meteorológiai megfigyelések és előrejelzések több, mint 4000 repülőtéren (METAR és TAF jelentéseket).

A térképen piros és sárga pontok jelzik az elérhető meteorológiai állomásokat.

Mozgassa az egeret a pont fölött, hogy megjelenjen az állomás neve.

Azután kattintson az időjárási megfigyelések és előrejelzések megtekintéséhez.

A térkép megváltoztatása: kattintson a fekete keresztel jelölt zöld gombra ráközelítéshez, a vonallal jelölt zöld gombra távolításhoz, vagy a zöld nyilakra a szomszédos térképek eléréséhez.


METAR-TAF: